Baugh, Oklahoma
Current Conditions -  °F | °C
As of 11:35 PM on Friday 24 Oct 2014 (Local Time) from KOWP Reporting Station
Clear Clear  
Wind Chill: 71°   Ceiling: Unl
Heat Index: 71°   Visibility: 10mi
Dew Point: 63°   Wind: 5mph
Humidity: 76%   Direction: 190°S
Pressure: 30.06"   Gusts: NA
Location:  36.248°N, 96.4789°W
Report Text: KOWP 250435Z AUTO 19004KT 10SM CLR 22/17 A3006 RMK AO2 T02150171
Loading
Personal Weather Stations






























Interactive Weather Map New forecast layout! Learn more

10-Day Weather Forecast

Advertisements
Track Severe Weather on mobile